sensor_id;sensor_type;location;lat;lon;timestamp;P1;durP1;ratioP1;P2;durP2;ratioP2
26191;SDS011;13935;55.672;37.764;2023-04-24T04:19:08;30.08;;;20.75;;
26191;SDS011;13935;55.672;37.764;2023-04-24T04:20:12;29.48;;;21.15;;
26191;SDS011;13935;55.672;37.764;2023-04-24T04:21:15;30.55;;;20.33;;
26191;SDS011;13935;55.672;37.764;2023-04-24T04:22:18;36.25;;;20.92;;
26191;SDS011;13935;55.672;37.764;2023-04-24T04:23:23;33.25;;;20.40;;
26191;SDS011;13935;55.672;37.764;2023-04-24T04:24:48;32.75;;;20.15;;
26191;SDS011;13935;55.672;37.764;2023-04-24T04:25:50;32.85;;;21.95;;
26191;SDS011;13935;55.672;37.764;2023-04-24T04:26:57;35.75;;;21.10;;
26191;SDS011;13935;55.672;37.764;2023-04-24T04:28:06;35.70;;;22.02;;
26191;SDS011;13935;55.672;37.764;2023-04-24T04:29:10;32.05;;;21.23;;
26191;SDS011;13935;55.672;37.764;2023-04-24T04:30:16;34.55;;;20.38;;
26191;SDS011;13935;55.672;37.764;2023-04-24T04:31:29;33.55;;;21.52;;
26191;SDS011;13935;55.672;37.764;2023-04-24T04:32:36;32.50;;;21.65;;
26191;SDS011;13935;55.672;37.764;2023-04-24T04:33:38;32.65;;;21.73;;
26191;SDS011;13935;55.672;37.764;2023-04-24T04:34:42;32.45;;;22.08;;
26191;SDS011;13935;55.672;37.764;2023-04-24T04:35:47;33.53;;;21.67;;
26191;SDS011;13935;55.672;37.764;2023-04-24T04:36:55;34.38;;;21.80;;
26191;SDS011;13935;55.672;37.764;2023-04-24T04:38:23;34.30;;;20.55;;
26191;SDS011;13935;55.672;37.764;2023-04-24T04:39:39;33.65;;;21.75;;
26191;SDS011;13935;55.672;37.764;2023-04-24T04:40:46;30.20;;;21.08;;
26191;SDS011;13935;55.672;37.764;2023-04-24T04:41:50;30.90;;;21.05;;
26191;SDS011;13935;55.672;37.764;2023-04-24T04:42:55;34.75;;;21.30;;
26191;SDS011;13935;55.672;37.764;2023-04-24T04:44:01;35.25;;;21.98;;
26191;SDS011;13935;55.672;37.764;2023-04-24T04:45:07;28.45;;;20.77;;
26191;SDS011;13935;55.672;37.764;2023-04-24T04:46:31;27.38;;;19.80;;
26191;SDS011;13935;55.672;37.764;2023-04-24T04:47:47;31.10;;;20.63;;
26191;SDS011;13935;55.672;37.764;2023-04-24T04:48:52;30.55;;;20.92;;
26191;SDS011;13935;55.672;37.764;2023-04-24T04:50:01;30.30;;;21.27;;
26191;SDS011;13935;55.672;37.764;2023-04-24T04:51:05;32.97;;;21.98;;
26191;SDS011;13935;55.672;37.764;2023-04-24T04:52:12;28.27;;;21.55;;
26191;SDS011;13935;55.672;37.764;2023-04-24T04:53:27;31.92;;;22.67;;
26191;SDS011;13935;55.672;37.764;2023-04-24T04:54:31;31.90;;;22.25;;
26191;SDS011;13935;55.672;37.764;2023-04-24T04:55:32;33.22;;;22.52;;
26191;SDS011;13935;55.672;37.764;2023-04-24T04:56:49;34.70;;;22.23;;
26191;SDS011;13935;55.672;37.764;2023-04-24T04:57:52;33.25;;;21.05;;
26191;SDS011;13935;55.672;37.764;2023-04-24T04:58:55;32.75;;;23.15;;
26191;SDS011;13935;55.672;37.764;2023-04-24T05:01:29;29.17;;;21.25;;
26191;SDS011;13935;55.672;37.764;2023-04-24T05:02:33;32.67;;;20.75;;
26191;SDS011;13935;55.672;37.764;2023-04-24T05:10:04;26.15;;;20.90;;
26191;SDS011;13935;55.672;37.764;2023-04-24T05:11:21;30.67;;;20.83;;
26191;SDS011;13935;55.672;37.764;2023-04-24T05:12:25;34.40;;;21.63;;
26191;SDS011;13935;55.672;37.764;2023-04-24T05:13:43;33.97;;;21.25;;
26191;SDS011;13935;55.672;37.764;2023-04-24T05:14:57;29.73;;;20.38;;
26191;SDS011;13935;55.672;37.764;2023-04-24T05:16:00;28.90;;;21.13;;
26191;SDS011;13935;55.672;37.764;2023-04-24T05:17:05;30.23;;;21.05;;
26191;SDS011;13935;55.672;37.764;2023-04-24T05:18:07;26.45;;;20.88;;
26191;SDS011;13935;55.672;37.764;2023-04-24T05:19:11;25.27;;;20.52;;
26191;SDS011;13935;55.672;37.764;2023-04-24T05:20:15;31.92;;;21.65;;
26191;SDS011;13935;55.672;37.764;2023-04-24T05:21:22;31.48;;;20.58;;
26191;SDS011;13935;55.672;37.764;2023-04-24T05:22:42;30.67;;;21.45;;
26191;SDS011;13935;55.672;37.764;2023-04-24T05:23:53;28.70;;;20.73;;
26191;SDS011;13935;55.672;37.764;2023-04-24T05:25:19;33.17;;;21.45;;
26191;SDS011;13935;55.672;37.764;2023-04-24T05:26:30;33.78;;;21.40;;
26191;SDS011;13935;55.672;37.764;2023-04-24T05:27:54;35.65;;;22.02;;
26191;SDS011;13935;55.672;37.764;2023-04-24T05:28:59;31.98;;;21.30;;
26191;SDS011;13935;55.672;37.764;2023-04-24T05:30:04;31.95;;;21.25;;
26191;SDS011;13935;55.672;37.764;2023-04-24T05:31:11;31.38;;;20.75;;
26191;SDS011;13935;55.672;37.764;2023-04-24T05:32:15;35.30;;;20.65;;
26191;SDS011;13935;55.672;37.764;2023-04-24T05:33:22;32.53;;;20.75;;
26191;SDS011;13935;55.672;37.764;2023-04-24T05:34:30;28.15;;;21.60;;
26191;SDS011;13935;55.672;37.764;2023-04-24T05:35:33;28.80;;;21.38;;
26191;SDS011;13935;55.672;37.764;2023-04-24T05:36:37;24.63;;;20.58;;
26191;SDS011;13935;55.672;37.764;2023-04-24T05:37:39;29.08;;;20.92;;
26191;SDS011;13935;55.672;37.764;2023-04-24T05:38:43;31.50;;;21.10;;
26191;SDS011;13935;55.672;37.764;2023-04-24T05:39:46;25.88;;;20.02;;
26191;SDS011;13935;55.672;37.764;2023-04-24T05:40:48;25.67;;;20.08;;
26191;SDS011;13935;55.672;37.764;2023-04-24T05:41:50;28.58;;;19.85;;
26191;SDS011;13935;55.672;37.764;2023-04-24T05:42:54;29.92;;;20.58;;
26191;SDS011;13935;55.672;37.764;2023-04-24T05:44:00;28.92;;;19.30;;
26191;SDS011;13935;55.672;37.764;2023-04-24T05:45:06;27.75;;;20.27;;
26191;SDS011;13935;55.672;37.764;2023-04-24T05:46:10;28.45;;;20.15;;
26191;SDS011;13935;55.672;37.764;2023-04-24T05:47:14;29.65;;;20.10;;
26191;SDS011;13935;55.672;37.764;2023-04-24T05:48:16;28.35;;;19.70;;
26191;SDS011;13935;55.672;37.764;2023-04-24T05:49:18;27.67;;;19.30;;
26191;SDS011;13935;55.672;37.764;2023-04-24T05:50:23;34.53;;;19.25;;
26191;SDS011;13935;55.672;37.764;2023-04-24T05:51:26;28.58;;;20.08;;
26191;SDS011;13935;55.672;37.764;2023-04-24T05:52:28;30.17;;;20.73;;
26191;SDS011;13935;55.672;37.764;2023-04-24T05:53:30;26.88;;;18.45;;
26191;SDS011;13935;55.672;37.764;2023-04-24T05:54:33;22.42;;;17.52;;
26191;SDS011;13935;55.672;37.764;2023-04-24T05:55:35;37.80;;;33.75;;
26191;SDS011;13935;55.672;37.764;2023-04-24T05:56:38;26.13;;;19.50;;
26191;SDS011;13935;55.672;37.764;2023-04-24T05:57:51;23.88;;;17.50;;
26191;SDS011;13935;55.672;37.764;2023-04-24T05:59:36;20.17;;;16.98;;
26191;SDS011;13935;55.672;37.764;2023-04-24T06:00:45;25.33;;;17.15;;
26191;SDS011;13935;55.672;37.764;2023-04-24T06:01:48;26.33;;;17.17;;
26191;SDS011;13935;55.672;37.764;2023-04-24T06:02:53;24.08;;;16.15;;
26191;SDS011;13935;55.672;37.764;2023-04-24T06:03:57;20.52;;;16.98;;
26191;SDS011;13935;55.672;37.764;2023-04-24T06:05:00;25.00;;;19.33;;
26191;SDS011;13935;55.672;37.764;2023-04-24T06:06:05;23.17;;;16.02;;
26191;SDS011;13935;55.672;37.764;2023-04-24T06:07:10;18.10;;;15.50;;
26191;SDS011;13935;55.672;37.764;2023-04-24T06:08:16;20.33;;;16.27;;
26191;SDS011;13935;55.672;37.764;2023-04-24T06:09:20;22.33;;;15.27;;
26191;SDS011;13935;55.672;37.764;2023-04-24T06:11:56;21.40;;;15.07;;
26191;SDS011;13935;55.672;37.764;2023-04-24T06:13:08;21.13;;;14.80;;
26191;SDS011;13935;55.672;37.764;2023-04-24T06:14:14;26.70;;;14.80;;
26191;SDS011;13935;55.672;37.764;2023-04-24T06:16:01;17.17;;;13.73;;
26191;SDS011;13935;55.672;37.764;2023-04-24T06:17:13;20.58;;;13.60;;
26191;SDS011;13935;55.672;37.764;2023-04-24T06:18:15;22.95;;;14.23;;
26191;SDS011;13935;55.672;37.764;2023-04-24T06:19:19;19.77;;;13.98;;
26191;SDS011;13935;55.672;37.764;2023-04-24T06:20:22;21.67;;;14.18;;
26191;SDS011;13935;55.672;37.764;2023-04-24T06:21:26;19.92;;;13.07;;
26191;SDS011;13935;55.672;37.764;2023-04-24T06:22:29;17.27;;;13.90;;
26191;SDS011;13935;55.672;37.764;2023-04-24T06:23:33;21.00;;;13.80;;
26191;SDS011;13935;55.672;37.764;2023-04-24T06:24:37;22.45;;;13.60;;
26191;SDS011;13935;55.672;37.764;2023-04-24T06:25:39;21.38;;;13.52;;
26191;SDS011;13935;55.672;37.764;2023-04-24T06:26:42;19.77;;;12.80;;
26191;SDS011;13935;55.672;37.764;2023-04-24T06:27:49;18.88;;;13.43;;
26191;SDS011;13935;55.672;37.764;2023-04-24T06:28:51;22.90;;;13.75;;
26191;SDS011;13935;55.672;37.764;2023-04-24T06:29:59;24.50;;;13.45;;
26191;SDS011;13935;55.672;37.764;2023-04-24T06:31:01;24.02;;;12.75;;
26191;SDS011;13935;55.672;37.764;2023-04-24T06:32:04;18.50;;;13.00;;
26191;SDS011;13935;55.672;37.764;2023-04-24T06:33:06;17.35;;;12.70;;
26191;SDS011;13935;55.672;37.764;2023-04-24T06:34:21;19.58;;;12.68;;
26191;SDS011;13935;55.672;37.764;2023-04-24T06:35:26;17.38;;;11.82;;
26191;SDS011;13935;55.672;37.764;2023-04-24T06:36:29;20.10;;;11.68;;
26191;SDS011;13935;55.672;37.764;2023-04-24T06:37:32;17.02;;;11.77;;
26191;SDS011;13935;55.672;37.764;2023-04-24T06:38:35;15.98;;;12.35;;
26191;SDS011;13935;55.672;37.764;2023-04-24T06:39:43;20.70;;;13.32;;
26191;SDS011;13935;55.672;37.764;2023-04-24T06:40:50;18.38;;;12.48;;
26191;SDS011;13935;55.672;37.764;2023-04-24T06:41:54;17.52;;;12.73;;
26191;SDS011;13935;55.672;37.764;2023-04-24T06:42:58;18.30;;;11.90;;
26191;SDS011;13935;55.672;37.764;2023-04-24T06:44:10;19.40;;;12.65;;
26191;SDS011;13935;55.672;37.764;2023-04-24T06:46:41;22.58;;;12.57;;
26191;SDS011;13935;55.672;37.764;2023-04-24T06:47:44;20.02;;;12.30;;
26191;SDS011;13935;55.672;37.764;2023-04-24T06:48:53;18.70;;;13.00;;
26191;SDS011;13935;55.672;37.764;2023-04-24T06:49:59;18.95;;;12.85;;
26191;SDS011;13935;55.672;37.764;2023-04-24T06:51:01;18.13;;;12.63;;
26191;SDS011;13935;55.672;37.764;2023-04-24T06:52:05;23.38;;;12.68;;
26191;SDS011;13935;55.672;37.764;2023-04-24T06:53:11;16.73;;;11.60;;
26191;SDS011;13935;55.672;37.764;2023-04-24T06:54:14;17.45;;;12.05;;
26191;SDS011;13935;55.672;37.764;2023-04-24T06:55:17;22.55;;;12.98;;
26191;SDS011;13935;55.672;37.764;2023-04-24T06:56:21;15.98;;;11.93;;
26191;SDS011;13935;55.672;37.764;2023-04-24T06:57:24;19.25;;;12.50;;
26191;SDS011;13935;55.672;37.764;2023-04-24T06:58:27;20.83;;;12.15;;
26191;SDS011;13935;55.672;37.764;2023-04-24T07:01:06;21.13;;;12.10;;
26191;SDS011;13935;55.672;37.764;2023-04-24T07:02:29;16.65;;;11.50;;
26191;SDS011;13935;55.672;37.764;2023-04-24T07:03:32;19.25;;;11.30;;
26191;SDS011;13935;55.672;37.764;2023-04-24T07:04:34;18.13;;;12.35;;
26191;SDS011;13935;55.672;37.764;2023-04-24T07:05:38;18.55;;;12.32;;
26191;SDS011;13935;55.672;37.764;2023-04-24T07:06:41;18.63;;;11.77;;
26191;SDS011;13935;55.672;37.764;2023-04-24T07:07:46;20.95;;;11.52;;
26191;SDS011;13935;55.672;37.764;2023-04-24T07:08:56;18.80;;;11.55;;
26191;SDS011;13935;55.672;37.764;2023-04-24T07:10:00;18.80;;;11.52;;
26191;SDS011;13935;55.672;37.764;2023-04-24T07:11:10;21.48;;;12.27;;
26191;SDS011;13935;55.672;37.764;2023-04-24T07:12:13;17.92;;;11.00;;
26191;SDS011;13935;55.672;37.764;2023-04-24T07:13:15;14.13;;;9.18;;
26191;SDS011;13935;55.672;37.764;2023-04-24T07:14:20;15.02;;;9.60;;
26191;SDS011;13935;55.672;37.764;2023-04-24T07:15:22;15.52;;;10.70;;
26191;SDS011;13935;55.672;37.764;2023-04-24T07:16:26;16.65;;;9.32;;
26191;SDS011;13935;55.672;37.764;2023-04-24T07:17:28;15.45;;;8.98;;
26191;SDS011;13935;55.672;37.764;2023-04-24T07:18:30;12.90;;;9.27;;
26191;SDS011;13935;55.672;37.764;2023-04-24T07:19:33;13.18;;;9.02;;
26191;SDS011;13935;55.672;37.764;2023-04-24T07:20:39;16.95;;;8.77;;
26191;SDS011;13935;55.672;37.764;2023-04-24T07:21:41;15.40;;;8.63;;
26191;SDS011;13935;55.672;37.764;2023-04-24T07:22:43;14.95;;;7.97;;
26191;SDS011;13935;55.672;37.764;2023-04-24T07:23:45;11.38;;;8.20;;
26191;SDS011;13935;55.672;37.764;2023-04-24T07:24:48;13.50;;;8.18;;
26191;SDS011;13935;55.672;37.764;2023-04-24T07:25:50;12.65;;;8.23;;
26191;SDS011;13935;55.672;37.764;2023-04-24T07:26:53;9.15;;;7.22;;
26191;SDS011;13935;55.672;37.764;2023-04-24T07:27:55;12.82;;;7.47;;
26191;SDS011;13935;55.672;37.764;2023-04-24T07:28:57;9.13;;;7.82;;
26191;SDS011;13935;55.672;37.764;2023-04-24T07:29:59;11.02;;;7.80;;
26191;SDS011;13935;55.672;37.764;2023-04-24T07:31:03;12.10;;;7.93;;
26191;SDS011;13935;55.672;37.764;2023-04-24T07:32:06;11.43;;;7.55;;
26191;SDS011;13935;55.672;37.764;2023-04-24T07:33:09;13.85;;;7.82;;
26191;SDS011;13935;55.672;37.764;2023-04-24T07:34:15;17.83;;;11.75;;
26191;SDS011;13935;55.672;37.764;2023-04-24T07:35:21;13.75;;;7.80;;
26191;SDS011;13935;55.672;37.764;2023-04-24T07:36:23;11.85;;;7.72;;
26191;SDS011;13935;55.672;37.764;2023-04-24T07:37:28;11.75;;;7.80;;
26191;SDS011;13935;55.672;37.764;2023-04-24T07:38:30;11.00;;;7.22;;
26191;SDS011;13935;55.672;37.764;2023-04-24T07:39:35;11.85;;;7.20;;
26191;SDS011;13935;55.672;37.764;2023-04-24T07:40:39;8.35;;;7.18;;
26191;SDS011;13935;55.672;37.764;2023-04-24T07:41:41;11.95;;;7.35;;
26191;SDS011;13935;55.672;37.764;2023-04-24T07:42:43;10.82;;;6.68;;
26191;SDS011;13935;55.672;37.764;2023-04-24T07:43:46;11.00;;;7.07;;
26191;SDS011;13935;55.672;37.764;2023-04-24T07:44:50;9.57;;;6.30;;
26191;SDS011;13935;55.672;37.764;2023-04-24T07:45:53;8.57;;;6.45;;
26191;SDS011;13935;55.672;37.764;2023-04-24T07:46:55;10.10;;;6.50;;
26191;SDS011;13935;55.672;37.764;2023-04-24T07:47:58;9.10;;;7.40;;
26191;SDS011;13935;55.672;37.764;2023-04-24T07:49:02;11.43;;;7.00;;
26191;SDS011;13935;55.672;37.764;2023-04-24T07:50:15;9.13;;;7.13;;
26191;SDS011;13935;55.672;37.764;2023-04-24T07:51:17;9.40;;;7.07;;
26191;SDS011;13935;55.672;37.764;2023-04-24T07:52:21;9.43;;;7.20;;
26191;SDS011;13935;55.672;37.764;2023-04-24T07:53:23;10.75;;;6.65;;
26191;SDS011;13935;55.672;37.764;2023-04-24T07:54:26;10.48;;;6.75;;
26191;SDS011;13935;55.672;37.764;2023-04-24T07:55:33;8.48;;;6.90;;
26191;SDS011;13935;55.672;37.764;2023-04-24T07:56:35;11.77;;;7.07;;
26191;SDS011;13935;55.672;37.764;2023-04-24T07:57:40;11.70;;;7.45;;
26191;SDS011;13935;55.672;37.764;2023-04-24T07:58:42;10.18;;;7.22;;
26191;SDS011;13935;55.672;37.764;2023-04-24T07:59:47;10.10;;;7.30;;
26191;SDS011;13935;55.672;37.764;2023-04-24T08:00:50;9.30;;;7.25;;
26191;SDS011;13935;55.672;37.764;2023-04-24T08:01:52;9.23;;;7.18;;
26191;SDS011;13935;55.672;37.764;2023-04-24T08:02:55;10.85;;;7.05;;
26191;SDS011;13935;55.672;37.764;2023-04-24T08:03:58;8.55;;;7.15;;
26191;SDS011;13935;55.672;37.764;2023-04-24T08:05:00;11.55;;;7.20;;
26191;SDS011;13935;55.672;37.764;2023-04-24T08:06:03;9.85;;;7.30;;
26191;SDS011;13935;55.672;37.764;2023-04-24T08:07:05;11.93;;;7.80;;
26191;SDS011;13935;55.672;37.764;2023-04-24T08:08:09;12.05;;;7.47;;
26191;SDS011;13935;55.672;37.764;2023-04-24T08:09:11;9.07;;;6.70;;
26191;SDS011;13935;55.672;37.764;2023-04-24T08:10:20;8.98;;;7.03;;
26191;SDS011;13935;55.672;37.764;2023-04-24T08:11:24;8.93;;;6.32;;
26191;SDS011;13935;55.672;37.764;2023-04-24T08:12:28;9.20;;;6.68;;
26191;SDS011;13935;55.672;37.764;2023-04-24T08:13:30;9.63;;;6.68;;
26191;SDS011;13935;55.672;37.764;2023-04-24T08:14:32;14.40;;;6.80;;
26191;SDS011;13935;55.672;37.764;2023-04-24T08:15:35;9.85;;;6.35;;
26191;SDS011;13935;55.672;37.764;2023-04-24T08:16:37;9.10;;;6.90;;
26191;SDS011;13935;55.672;37.764;2023-04-24T08:17:39;9.75;;;7.43;;
26191;SDS011;13935;55.672;37.764;2023-04-24T08:18:42;9.80;;;7.47;;
26191;SDS011;13935;55.672;37.764;2023-04-24T08:19:44;9.23;;;7.20;;
26191;SDS011;13935;55.672;37.764;2023-04-24T08:20:53;15.23;;;8.10;;
26191;SDS011;13935;55.672;37.764;2023-04-24T08:21:59;8.88;;;7.10;;
26191;SDS011;13935;55.672;37.764;2023-04-24T08:23:02;8.43;;;7.30;;
26191;SDS011;13935;55.672;37.764;2023-04-24T08:24:04;10.23;;;7.00;;
26191;SDS011;13935;55.672;37.764;2023-04-24T08:25:10;11.13;;;8.38;;
26191;SDS011;13935;55.672;37.764;2023-04-24T08:26:12;10.68;;;7.55;;
26191;SDS011;13935;55.672;37.764;2023-04-24T08:27:15;8.75;;;7.25;;
26191;SDS011;13935;55.672;37.764;2023-04-24T08:28:17;10.25;;;7.47;;
26191;SDS011;13935;55.672;37.764;2023-04-24T08:29:22;8.05;;;6.45;;
26191;SDS011;13935;55.672;37.764;2023-04-24T08:30:26;8.30;;;6.80;;
26191;SDS011;13935;55.672;37.764;2023-04-24T08:31:28;9.18;;;7.22;;
26191;SDS011;13935;55.672;37.764;2023-04-24T08:32:31;15.52;;;7.63;;
26191;SDS011;13935;55.672;37.764;2023-04-24T08:33:34;14.10;;;7.60;;
26191;SDS011;13935;55.672;37.764;2023-04-24T08:34:36;11.27;;;7.90;;
26191;SDS011;13935;55.672;37.764;2023-04-24T08:35:41;13.60;;;7.40;;
26191;SDS011;13935;55.672;37.764;2023-04-24T08:36:43;13.05;;;8.02;;
26191;SDS011;13935;55.672;37.764;2023-04-24T08:37:49;11.27;;;7.13;;
26191;SDS011;13935;55.672;37.764;2023-04-24T08:38:54;10.10;;;6.97;;
26191;SDS011;13935;55.672;37.764;2023-04-24T08:40:01;9.52;;;7.13;;
26191;SDS011;13935;55.672;37.764;2023-04-24T08:41:08;19.75;;;7.60;;
26191;SDS011;13935;55.672;37.764;2023-04-24T08:42:11;8.90;;;7.03;;
26191;SDS011;13935;55.672;37.764;2023-04-24T08:43:16;9.65;;;7.07;;
26191;SDS011;13935;55.672;37.764;2023-04-24T08:44:19;11.32;;;6.97;;
26191;SDS011;13935;55.672;37.764;2023-04-24T08:45:21;8.77;;;6.60;;
26191;SDS011;13935;55.672;37.764;2023-04-24T08:46:24;10.90;;;7.18;;
26191;SDS011;13935;55.672;37.764;2023-04-24T08:47:27;9.45;;;7.20;;
26191;SDS011;13935;55.672;37.764;2023-04-24T08:48:31;10.05;;;7.32;;
26191;SDS011;13935;55.672;37.764;2023-04-24T08:49:33;10.68;;;6.82;;
26191;SDS011;13935;55.672;37.764;2023-04-24T08:50:39;13.93;;;7.63;;
26191;SDS011;13935;55.672;37.764;2023-04-24T08:51:44;13.23;;;7.68;;
26191;SDS011;13935;55.672;37.764;2023-04-24T08:52:49;12.32;;;7.82;;
26191;SDS011;13935;55.672;37.764;2023-04-24T08:53:54;10.20;;;7.00;;
26191;SDS011;13935;55.672;37.764;2023-04-24T08:54:57;10.68;;;7.13;;
26191;SDS011;13935;55.672;37.764;2023-04-24T08:56:01;10.55;;;7.07;;
26191;SDS011;13935;55.672;37.764;2023-04-24T08:57:19;10.43;;;7.17;;
26191;SDS011;13935;55.672;37.764;2023-04-24T08:58:36;10.95;;;7.70;;
26191;SDS011;13935;55.672;37.764;2023-04-24T08:59:38;13.05;;;7.78;;
26191;SDS011;13935;55.672;37.764;2023-04-24T09:00:42;13.40;;;9.98;;
26191;SDS011;13935;55.672;37.764;2023-04-24T09:01:48;11.57;;;9.25;;
26191;SDS011;13935;55.672;37.764;2023-04-24T09:02:53;11.18;;;7.68;;
26191;SDS011;13935;55.672;37.764;2023-04-24T09:03:56;14.68;;;9.07;;
26191;SDS011;13935;55.672;37.764;2023-04-24T09:04:59;10.77;;;7.30;;
26191;SDS011;13935;55.672;37.764;2023-04-24T09:06:03;12.25;;;7.50;;
26191;SDS011;13935;55.672;37.764;2023-04-24T09:07:08;9.75;;;7.20;;
26191;SDS011;13935;55.672;37.764;2023-04-24T09:08:14;12.15;;;7.28;;
26191;SDS011;13935;55.672;37.764;2023-04-24T09:09:19;10.10;;;7.57;;
26191;SDS011;13935;55.672;37.764;2023-04-24T09:10:23;10.57;;;7.72;;
26191;SDS011;13935;55.672;37.764;2023-04-24T09:11:26;10.65;;;7.35;;
26191;SDS011;13935;55.672;37.764;2023-04-24T09:12:29;10.82;;;6.95;;
26191;SDS011;13935;55.672;37.764;2023-04-24T09:13:31;8.80;;;7.25;;
26191;SDS011;13935;55.672;37.764;2023-04-24T09:14:34;10.05;;;7.28;;
26191;SDS011;13935;55.672;37.764;2023-04-24T09:15:38;11.88;;;7.80;;
26191;SDS011;13935;55.672;37.764;2023-04-24T09:16:42;9.55;;;7.78;;
26191;SDS011;13935;55.672;37.764;2023-04-24T09:17:44;10.85;;;7.13;;
26191;SDS011;13935;55.672;37.764;2023-04-24T09:18:46;10.30;;;7.40;;
26191;SDS011;13935;55.672;37.764;2023-04-24T09:19:48;11.73;;;7.90;;
26191;SDS011;13935;55.672;37.764;2023-04-24T09:21:14;11.10;;;7.60;;
26191;SDS011;13935;55.672;37.764;2023-04-24T09:22:15;18.75;;;8.95;;
26191;SDS011;13935;55.672;37.764;2023-04-24T09:23:17;12.60;;;7.53;;
26191;SDS011;13935;55.672;37.764;2023-04-24T09:24:20;20.13;;;8.55;;
26191;SDS011;13935;55.672;37.764;2023-04-24T09:25:32;14.10;;;7.70;;
26191;SDS011;13935;55.672;37.764;2023-04-24T09:27:41;16.13;;;8.75;;
26191;SDS011;13935;55.672;37.764;2023-04-24T09:30:01;10.60;;;7.65;;
26191;SDS011;13935;55.672;37.764;2023-04-24T09:31:09;12.88;;;7.75;;
26191;SDS011;13935;55.672;37.764;2023-04-24T09:32:21;9.38;;;7.80;;
26191;SDS011;13935;55.672;37.764;2023-04-24T09:35:55;10.45;;;7.82;;
26191;SDS011;13935;55.672;37.764;2023-04-24T09:36:59;11.20;;;7.75;;
26191;SDS011;13935;55.672;37.764;2023-04-24T09:38:03;10.88;;;7.38;;
26191;SDS011;13935;55.672;37.764;2023-04-24T09:39:08;15.77;;;7.80;;
26191;SDS011;13935;55.672;37.764;2023-04-24T09:40:20;10.32;;;7.50;;
26191;SDS011;13935;55.672;37.764;2023-04-24T09:41:25;11.40;;;7.85;;
26191;SDS011;13935;55.672;37.764;2023-04-24T09:43:44;11.70;;;8.25;;
26191;SDS011;13935;55.672;37.764;2023-04-24T09:44:56;10.45;;;7.50;;
26191;SDS011;13935;55.672;37.764;2023-04-24T09:46:14;9.98;;;6.88;;
26191;SDS011;13935;55.672;37.764;2023-04-24T09:47:24;10.68;;;7.15;;
26191;SDS011;13935;55.672;37.764;2023-04-24T09:48:31;12.45;;;7.95;;
26191;SDS011;13935;55.672;37.764;2023-04-24T09:49:35;12.43;;;7.78;;
26191;SDS011;13935;55.672;37.764;2023-04-24T09:50:45;12.27;;;7.47;;
26191;SDS011;13935;55.672;37.764;2023-04-24T09:53:10;10.10;;;7.50;;
26191;SDS011;13935;55.672;37.764;2023-04-24T09:54:15;9.52;;;6.95;;
26191;SDS011;13935;55.672;37.764;2023-04-24T09:55:20;10.98;;;7.72;;
26191;SDS011;13935;55.672;37.764;2023-04-24T09:56:22;8.90;;;7.05;;
26191;SDS011;13935;55.672;37.764;2023-04-24T09:57:27;9.50;;;7.10;;
26191;SDS011;13935;55.672;37.764;2023-04-24T09:58:32;10.85;;;7.32;;
26191;SDS011;13935;55.672;37.764;2023-04-24T09:59:34;16.15;;;8.50;;
26191;SDS011;13935;55.672;37.764;2023-04-24T10:00:39;13.63;;;8.48;;
26191;SDS011;13935;55.672;37.764;2023-04-24T10:01:42;12.35;;;7.90;;
26191;SDS011;13935;55.672;37.764;2023-04-24T10:02:49;11.50;;;7.55;;
26191;SDS011;13935;55.672;37.764;2023-04-24T10:03:53;11.80;;;8.13;;
26191;SDS011;13935;55.672;37.764;2023-04-24T10:04:59;13.07;;;7.88;;
26191;SDS011;13935;55.672;37.764;2023-04-24T10:06:07;13.40;;;7.03;;
26191;SDS011;13935;55.672;37.764;2023-04-24T10:07:38;9.35;;;7.70;;
26191;SDS011;13935;55.672;37.764;2023-04-24T10:08:46;13.20;;;7.78;;
26191;SDS011;13935;55.672;37.764;2023-04-24T10:09:54;12.60;;;7.47;;
26191;SDS011;13935;55.672;37.764;2023-04-24T10:11:11;16.55;;;7.53;;
26191;SDS011;13935;55.672;37.764;2023-04-24T10:12:13;14.02;;;8.90;;
26191;SDS011;13935;55.672;37.764;2023-04-24T10:13:17;13.60;;;8.00;;
26191;SDS011;13935;55.672;37.764;2023-04-24T10:14:25;13.68;;;7.80;;
26191;SDS011;13935;55.672;37.764;2023-04-24T10:15:35;11.63;;;7.45;;
26191;SDS011;13935;55.672;37.764;2023-04-24T10:16:46;11.05;;;7.60;;
26191;SDS011;13935;55.672;37.764;2023-04-24T10:18:00;11.52;;;7.55;;
26191;SDS011;13935;55.672;37.764;2023-04-24T10:19:06;9.50;;;7.35;;
26191;SDS011;13935;55.672;37.764;2023-04-24T10:20:27;11.65;;;7.65;;
26191;SDS011;13935;55.672;37.764;2023-04-24T10:21:35;10.50;;;7.90;;
26191;SDS011;13935;55.672;37.764;2023-04-24T10:22:49;12.10;;;7.68;;
26191;SDS011;13935;55.672;37.764;2023-04-24T10:25:29;12.00;;;8.23;;
26191;SDS011;13935;55.672;37.764;2023-04-24T10:26:35;11.68;;;8.30;;
26191;SDS011;13935;55.672;37.764;2023-04-24T10:27:45;10.07;;;7.55;;
26191;SDS011;13935;55.672;37.764;2023-04-24T10:29:03;13.55;;;8.63;;
26191;SDS011;13935;55.672;37.764;2023-04-24T10:31:17;10.55;;;7.65;;
26191;SDS011;13935;55.672;37.764;2023-04-24T10:32:22;10.20;;;7.97;;
26191;SDS011;13935;55.672;37.764;2023-04-24T10:33:24;13.65;;;7.53;;
26191;SDS011;13935;55.672;37.764;2023-04-24T10:34:28;11.93;;;7.43;;
26191;SDS011;13935;55.672;37.764;2023-04-24T10:35:52;13.93;;;7.63;;
26191;SDS011;13935;55.672;37.764;2023-04-24T10:37:11;10.25;;;7.43;;
26191;SDS011;13935;55.672;37.764;2023-04-24T10:38:21;9.82;;;7.45;;
26191;SDS011;13935;55.672;37.764;2023-04-24T10:48:17;16.20;;;8.30;;
26191;SDS011;13935;55.672;37.764;2023-04-24T11:13:15;13.68;;;6.90;;
26191;SDS011;13935;55.672;37.764;2023-04-24T11:14:18;12.10;;;6.90;;
26191;SDS011;13935;55.672;37.764;2023-04-24T11:15:20;14.00;;;6.97;;
26191;SDS011;13935;55.672;37.764;2023-04-24T11:16:30;12.05;;;7.57;;
26191;SDS011;13935;55.672;37.764;2023-04-24T11:17:37;10.75;;;7.20;;
26191;SDS011;13935;55.672;37.764;2023-04-24T11:18:42;9.55;;;7.38;;
26191;SDS011;13935;55.672;37.764;2023-04-24T11:19:52;9.43;;;6.60;;
26191;SDS011;13935;55.672;37.764;2023-04-24T11:22:46;14.70;;;7.68;;
26191;SDS011;13935;55.672;37.764;2023-04-24T11:23:48;11.63;;;6.68;;
26191;SDS011;13935;55.672;37.764;2023-04-24T11:24:53;10.45;;;6.60;;
26191;SDS011;13935;55.672;37.764;2023-04-24T11:26:09;11.80;;;6.82;;
26191;SDS011;13935;55.672;37.764;2023-04-24T11:27:15;10.00;;;6.88;;
26191;SDS011;13935;55.672;37.764;2023-04-24T11:28:18;9.27;;;6.78;;
26191;SDS011;13935;55.672;37.764;2023-04-24T11:29:22;16.60;;;8.63;;
26191;SDS011;13935;55.672;37.764;2023-04-24T11:30:29;10.77;;;7.55;;
26191;SDS011;13935;55.672;37.764;2023-04-24T11:31:34;10.60;;;6.85;;
26191;SDS011;13935;55.672;37.764;2023-04-24T11:32:50;11.60;;;6.53;;
26191;SDS011;13935;55.672;37.764;2023-04-24T11:33:55;8.75;;;6.18;;
26191;SDS011;13935;55.672;37.764;2023-04-24T11:34:58;12.75;;;6.60;;
26191;SDS011;13935;55.672;37.764;2023-04-24T11:36:06;9.43;;;6.65;;
26191;SDS011;13935;55.672;37.764;2023-04-24T11:37:08;9.32;;;6.20;;
26191;SDS011;13935;55.672;37.764;2023-04-24T11:38:12;11.73;;;6.80;;
26191;SDS011;13935;55.672;37.764;2023-04-24T11:39:20;11.82;;;6.43;;
26191;SDS011;13935;55.672;37.764;2023-04-24T11:40:22;10.35;;;6.38;;